createdAt,value
2018-09-08T00:00:46.782Z,14
2018-09-08T00:01:46.785Z,14
2018-09-08T00:02:47.195Z,13.9
2018-09-08T00:03:47.150Z,13.9
2018-09-08T00:04:47.084Z,13.8
2018-09-08T00:05:47.011Z,13.8
2018-09-08T00:06:46.922Z,13.8
2018-09-08T00:07:46.895Z,13.8
2018-09-08T00:08:46.841Z,13.8
2018-09-08T00:09:46.754Z,13.8
2018-09-08T00:10:46.696Z,13.8
2018-09-08T00:11:46.608Z,13.8
2018-09-08T00:12:47.001Z,13.9
2018-09-08T00:13:46.912Z,13.9
2018-09-08T00:14:46.843Z,13.9
2018-09-08T00:15:46.749Z,13.8
2018-09-08T00:16:46.678Z,13.8
2018-09-08T00:17:46.607Z,13.8
2018-09-08T00:18:46.533Z,13.8
2018-09-08T00:19:46.674Z,13.8
2018-09-08T00:20:47.596Z,13.8
2018-09-08T00:21:47.505Z,13.8
2018-09-08T00:22:47.922Z,13.8
2018-09-08T00:23:47.849Z,13.8
2018-09-08T00:24:47.776Z,13.9
2018-09-08T00:25:47.681Z,13.9
2018-09-08T00:26:47.586Z,13.9
2018-09-08T00:27:47.520Z,13.9
2018-09-08T00:28:47.452Z,13.9
2018-09-08T00:29:47.385Z,14
2018-09-08T00:30:48.298Z,14
2018-09-08T00:31:48.212Z,14
2018-09-08T00:32:48.608Z,13.9
2018-09-08T00:33:49.537Z,14
2018-09-08T00:34:49.478Z,14
2018-09-08T00:35:49.424Z,14
2018-09-08T00:36:49.356Z,14
2018-09-08T00:37:49.275Z,14
2018-09-08T00:38:49.197Z,14.1
2018-09-08T00:39:49.129Z,14.1
2018-09-08T00:40:49.098Z,14.1
2018-09-08T00:41:48.997Z,14
2018-09-08T00:42:49.504Z,13.9
2018-09-08T00:43:49.427Z,13.9
2018-09-08T00:44:49.425Z,14
2018-09-08T00:45:49.567Z,14
2018-09-08T00:46:49.671Z,14.1
2018-09-08T00:47:49.595Z,14.1
2018-09-08T00:48:49.518Z,14.1
2018-09-08T00:49:49.440Z,14.1
2018-09-08T00:50:50.409Z,14.1
2018-09-08T00:51:50.368Z,14.1
2018-09-08T00:52:50.735Z,14.1
2018-09-08T00:53:50.762Z,14.1
2018-09-08T00:54:50.676Z,14.1
2018-09-08T00:55:50.601Z,14.1
2018-09-08T00:56:50.665Z,14
2018-09-08T00:57:50.743Z,14.1
2018-09-08T00:58:50.668Z,14.1
2018-09-08T00:59:50.583Z,14.1
2018-09-08T01:00:50.494Z,14
2018-09-08T01:01:50.454Z,14
2018-09-08T01:02:50.830Z,14
2018-09-08T01:03:51.226Z,13.9
2018-09-08T01:04:51.815Z,13.9
2018-09-08T01:05:51.726Z,13.9
2018-09-08T01:06:51.682Z,13.9
2018-09-08T01:07:51.605Z,13.9
2018-09-08T01:08:51.524Z,13.8
2018-09-08T01:09:51.488Z,13.8
2018-09-08T01:10:51.394Z,13.7
2018-09-08T01:11:51.330Z,13.7
2018-09-08T01:12:51.748Z,13.7
2018-09-08T01:13:51.653Z,13.7
2018-09-08T01:14:51.581Z,13.6
2018-09-08T01:15:51.485Z,13.6
2018-09-08T01:16:51.404Z,13.6
2018-09-08T01:17:51.334Z,13.7
2018-09-08T01:18:51.266Z,13.6
2018-09-08T01:19:51.187Z,13.6
2018-09-08T01:20:51.074Z,13.5
2018-09-08T01:21:50.963Z,13.6
2018-09-08T01:22:51.325Z,13.6
2018-09-08T01:23:51.242Z,13.6
2018-09-08T01:24:53.729Z,13.6
2018-09-08T01:25:53.656Z,13.5
2018-09-08T01:26:53.572Z,13.5
2018-09-08T01:27:53.513Z,13.5
2018-09-08T01:28:53.425Z,13.5
2018-09-08T01:29:53.349Z,13.4
2018-09-08T01:30:53.257Z,13.4
2018-09-08T01:31:53.185Z,13.5
2018-09-08T01:32:53.595Z,13.5
2018-09-08T01:33:53.539Z,13.4
2018-09-08T01:34:53.457Z,13.4
2018-09-08T01:35:53.377Z,13.4
2018-09-08T01:36:53.276Z,13.4
2018-09-08T01:37:53.176Z,13.4
2018-09-08T01:38:53.128Z,13.3
2018-09-08T01:39:53.029Z,13.3
2018-09-08T01:40:52.999Z,13.2
2018-09-08T01:41:52.928Z,13.1
2018-09-08T01:42:54.293Z,13.2
2018-09-08T01:43:54.204Z,13.2
2018-09-08T01:44:54.123Z,13.2
2018-09-08T01:45:54.047Z,13.1
2018-09-08T01:46:53.971Z,13.1
2018-09-08T01:47:53.898Z,13.2
2018-09-08T01:48:53.803Z,13.2
2018-09-08T01:49:54.682Z,13.2
2018-09-08T01:50:54.811Z,13.3
2018-09-08T01:51:54.722Z,13.3
2018-09-08T01:52:55.055Z,13.3
2018-09-08T01:53:54.995Z,13.4
2018-09-08T01:54:54.907Z,13.4
2018-09-08T01:55:54.829Z,13.5
2018-09-08T01:56:54.758Z,13.5
2018-09-08T01:57:54.667Z,13.4
2018-09-08T01:58:54.582Z,13.4
2018-09-08T01:59:54.516Z,13.5
2018-09-08T02:00:57.232Z,13.4
2018-09-08T02:01:57.134Z,13.5
2018-09-08T02:02:57.494Z,13.4
2018-09-08T02:03:57.393Z,13.4
2018-09-08T02:04:57.341Z,13.4
2018-09-08T02:05:57.261Z,13.4
2018-09-08T02:06:57.192Z,13.4
2018-09-08T02:07:57.342Z,13.3
2018-09-08T02:08:57.300Z,13.3
2018-09-08T02:09:57.212Z,13.3
2018-09-08T02:10:58.116Z,13.3
2018-09-08T02:11:58.021Z,13.3
2018-09-08T02:12:58.610Z,13.3
2018-09-08T02:13:58.517Z,13.3
2018-09-08T02:14:58.656Z,13.3
2018-09-08T02:15:58.588Z,13.2
2018-09-08T02:16:58.733Z,13.3
2018-09-08T02:17:58.665Z,13.3
2018-09-08T02:19:03.247Z,13.3
2018-09-08T02:20:03.148Z,13.4
2018-09-08T02:21:05.757Z,13.3
2018-09-08T02:22:08.465Z,13.3
2018-09-08T02:23:18.864Z,13.3
2018-09-08T02:24:18.762Z,13.2
2018-09-08T02:25:18.830Z,13.2
2018-09-08T02:26:23.474Z,13.1
2018-09-08T02:27:27.321Z,13.1
2018-09-08T02:28:28.738Z,13.1
2018-09-08T02:29:28.643Z,13.1
2018-09-08T02:30:28.544Z,13
2018-09-08T02:31:28.497Z,13.1
2018-09-08T02:32:29.150Z,13.1
2018-09-08T02:33:32.765Z,13.1
2018-09-08T02:34:32.737Z,13.1
2018-09-08T02:35:32.889Z,13.1
2018-09-08T02:36:32.837Z,13.2
2018-09-08T02:37:33.434Z,13.2
2018-09-08T02:38:33.360Z,13.1
2018-09-08T02:39:33.941Z,13.1
2018-09-08T02:40:36.410Z,13
2018-09-08T02:41:37.589Z,13
2018-09-08T02:42:39.178Z,13
2018-09-08T02:43:39.532Z,13
2018-09-08T02:44:42.337Z,13
2018-09-08T02:45:45.218Z,13
2018-09-08T02:46:45.150Z,13
2018-09-08T02:47:46.075Z,12.9
2018-09-08T02:48:47.217Z,13
2018-09-08T02:49:47.144Z,13
2018-09-08T02:50:48.056Z,13
2018-09-08T02:51:49.031Z,13
2018-09-08T02:52:49.626Z,12.9
2018-09-08T02:53:50.227Z,12.9
2018-09-08T02:54:50.139Z,12.9
2018-09-08T02:55:52.069Z,13
2018-09-08T02:56:53.003Z,12.9
2018-09-08T02:57:54.125Z,13
2018-09-08T02:58:54.046Z,13
2018-09-08T02:59:53.950Z,13
2018-09-08T03:00:57.543Z,13
2018-09-08T03:01:57.478Z,13
2018-09-08T03:02:57.841Z,12.9
2018-09-08T03:03:58.884Z,12.9
2018-09-08T03:04:59.100Z,12.9
2018-09-08T03:05:59.020Z,13
2018-09-08T03:06:59.172Z,12.9
2018-09-08T03:07:59.086Z,13
2018-09-08T03:09:05.207Z,12.8
2018-09-08T03:10:05.794Z,12.8
2018-09-08T03:11:05.713Z,12.8
2018-09-08T03:12:06.317Z,12.8
2018-09-08T03:13:06.251Z,12.7
2018-09-08T03:14:06.822Z,12.8
2018-09-08T03:15:06.742Z,12.8
2018-09-08T03:16:10.536Z,12.8
2018-09-08T03:17:10.473Z,12.8
2018-09-08T03:18:10.846Z,12.8
2018-09-08T03:19:10.764Z,12.8
2018-09-08T03:20:10.670Z,12.8
2018-09-08T03:21:10.590Z,12.8
2018-09-08T03:22:10.718Z,12.8
2018-09-08T03:23:14.828Z,12.7
2018-09-08T03:24:15.191Z,12.7
2018-09-08T03:25:15.101Z,12.8
2018-09-08T03:26:24.734Z,12.8
2018-09-08T03:27:24.623Z,12.8
2018-09-08T03:28:24.541Z,12.8
2018-09-08T03:29:24.702Z,12.8
2018-09-08T03:30:24.619Z,12.8
2018-09-08T03:31:24.569Z,12.8
2018-09-08T03:32:24.480Z,12.8
2018-09-08T03:33:24.582Z,12.8
2018-09-08T03:34:33.299Z,12.8
2018-09-08T03:35:33.418Z,12.8
2018-09-08T03:36:33.312Z,12.8
2018-09-08T03:37:33.213Z,12.8
2018-09-08T03:38:36.963Z,12.8
2018-09-08T03:39:41.219Z,12.8
2018-09-08T03:40:41.156Z,12.7
2018-09-08T03:41:45.892Z,12.7
2018-09-08T03:42:51.391Z,12.8
2018-09-08T03:43:51.332Z,12.7
2018-09-08T03:44:54.484Z,12.7
2018-09-08T03:45:55.408Z,12.8
2018-09-08T03:46:55.320Z,12.8
2018-09-08T03:47:55.218Z,12.8
2018-09-08T03:48:55.867Z,12.8
2018-09-08T03:49:55.799Z,12.8
2018-09-08T03:51:01.232Z,12.9
2018-09-08T03:52:01.139Z,12.9
2018-09-08T03:53:01.738Z,12.9
2018-09-08T03:54:01.697Z,12.8
2018-09-08T03:55:02.956Z,12.8
2018-09-08T03:56:02.904Z,12.8
2018-09-08T03:57:03.035Z,12.8
2018-09-08T03:58:02.951Z,12.8
2018-09-08T03:59:06.524Z,12.8
2018-09-08T04:00:07.367Z,12.8
2018-09-08T04:01:07.271Z,12.8
2018-09-08T04:02:10.905Z,12.8
2018-09-08T04:03:11.264Z,12.8
2018-09-08T04:04:11.245Z,12.8
2018-09-08T04:05:15.229Z,12.9
2018-09-08T04:06:15.815Z,12.8
2018-09-08T04:07:18.559Z,12.8
2018-09-08T04:08:19.130Z,12.8
2018-09-08T04:09:19.092Z,12.8
2018-09-08T04:10:23.877Z,12.8
2018-09-08T04:11:24.031Z,12.8
2018-09-08T04:12:25.487Z,12.8
2018-09-08T04:13:25.402Z,12.8
2018-09-08T04:14:26.005Z,12.9
2018-09-08T04:15:26.589Z,13
2018-09-08T04:16:29.221Z,13
2018-09-08T04:17:29.362Z,12.9
2018-09-08T04:18:29.294Z,13
2018-09-08T04:19:29.241Z,13
2018-09-08T04:20:30.152Z,13
2018-09-08T04:21:30.088Z,13.1
2018-09-08T04:22:34.563Z,13
2018-09-08T04:23:34.481Z,13.1
2018-09-08T04:24:34.435Z,13.1
2018-09-08T04:25:35.021Z,13.2
2018-09-08T04:26:35.622Z,13.2
2018-09-08T04:27:36.266Z,13.2
2018-09-08T04:28:37.989Z,13.2
2018-09-08T04:29:38.292Z,13.2
2018-09-08T04:30:39.052Z,13.2
2018-09-08T04:31:53.043Z,13.3
2018-09-08T04:32:52.956Z,13.1
2018-09-08T04:33:56.768Z,13.3
2018-09-08T04:34:57.596Z,13.2
2018-09-08T04:35:59.383Z,13.1
2018-09-08T04:36:59.541Z,13.2
2018-09-08T04:37:59.504Z,13.2
2018-09-08T04:39:07.891Z,13.1
2018-09-08T04:40:07.872Z,13.1
2018-09-08T04:41:11.447Z,13.1
2018-09-08T04:42:12.365Z,13
2018-09-08T04:43:12.282Z,13
2018-09-08T04:44:15.920Z,13
2018-09-08T04:45:17.299Z,13
2018-09-08T04:46:17.668Z,13
2018-09-08T04:47:18.263Z,13
2018-09-08T04:48:18.839Z,13
2018-09-08T04:49:20.839Z,12.9
2018-09-08T04:50:21.535Z,12.9
2018-09-08T04:51:21.431Z,12.8
2018-09-08T04:52:21.354Z,12.8
2018-09-08T04:53:21.281Z,12.7
2018-09-08T04:54:21.186Z,12.7
2018-09-08T04:55:21.553Z,12.7
2018-09-08T04:56:22.149Z,12.7
2018-09-08T04:57:25.025Z,12.7
2018-09-08T04:58:25.611Z,12.7
2018-09-08T04:59:29.186Z,12.6
2018-09-08T05:00:29.085Z,12.6
2018-09-08T05:01:29.730Z,12.6
2018-09-08T05:02:29.982Z,12.6
2018-09-08T05:03:30.340Z,12.6
2018-09-08T05:04:30.250Z,12.7
2018-09-08T05:05:30.161Z,12.7
2018-09-08T05:06:31.659Z,12.7
2018-09-08T05:07:31.605Z,12.7
2018-09-08T05:08:34.543Z,12.7
2018-09-08T05:09:34.686Z,12.7
2018-09-08T05:10:34.611Z,12.7
2018-09-08T05:11:35.245Z,12.7
2018-09-08T05:12:38.169Z,12.7
2018-09-08T05:13:40.903Z,12.7
2018-09-08T05:14:40.815Z,12.7
2018-09-08T05:15:40.723Z,12.7
2018-09-08T05:16:41.567Z,12.7
2018-09-08T05:17:44.053Z,12.7
2018-09-08T05:18:56.720Z,12.7
2018-09-08T05:19:59.756Z,12.7
2018-09-08T05:20:59.907Z,12.6
2018-09-08T05:22:00.280Z,12.6
2018-09-08T05:23:00.202Z,12.6
2018-09-08T05:24:00.806Z,12.7
2018-09-08T05:25:04.276Z,12.6
2018-09-08T05:26:04.194Z,12.6
2018-09-08T05:27:04.797Z,12.6
2018-09-08T05:28:08.372Z,12.6
2018-09-08T05:29:08.304Z,12.6
2018-09-08T05:30:08.215Z,12.5
2018-09-08T05:31:08.122Z,12.6
2018-09-08T05:32:11.621Z,12.6
2018-09-08T05:33:15.103Z,12.6
2018-09-08T05:34:18.645Z,12.6
2018-09-08T05:35:18.595Z,12.7
2018-09-08T05:36:19.246Z,12.7
2018-09-08T05:37:30.653Z,12.7
2018-09-08T05:38:30.775Z,12.8
2018-09-08T05:39:31.679Z,12.7
2018-09-08T05:40:35.314Z,12.8
2018-09-08T05:41:35.235Z,12.8
2018-09-08T05:42:38.475Z,12.9
2018-09-08T05:43:38.390Z,12.9
2018-09-08T05:44:40.913Z,12.9
2018-09-08T05:45:49.390Z,13
2018-09-08T05:46:53.095Z,13
2018-09-08T05:47:57.132Z,13
2018-09-08T05:49:07.007Z,13.1
2018-09-08T05:50:09.883Z,13.1
2018-09-08T05:51:15.706Z,13.1
2018-09-08T05:52:15.630Z,13.1
2018-09-08T05:53:16.540Z,13.1
2018-09-08T05:54:38.704Z,13.1
2018-09-08T05:55:39.957Z,13.1
2018-09-08T05:56:39.873Z,13.1
2018-09-08T05:57:45.768Z,13.1
2018-09-08T05:58:56.402Z,13.1
2018-09-08T05:59:56.527Z,13.1
2018-09-08T06:00:56.428Z,13.2
2018-09-08T06:01:59.145Z,13.1
2018-09-08T06:03:00.764Z,13.1
2018-09-08T06:04:05.511Z,13.2
2018-09-08T06:05:08.652Z,13.2
2018-09-08T06:06:08.561Z,13.2
2018-09-08T06:07:08.464Z,13.2
2018-09-08T06:08:08.405Z,13.2
2018-09-08T06:09:09.936Z,13.2
2018-09-08T06:10:09.989Z,13.3
2018-09-08T06:11:11.336Z,13.3
2018-09-08T06:12:14.030Z,13.4
2018-09-08T06:13:14.965Z,13.3
2018-09-08T06:14:15.579Z,13.4
2018-09-08T06:15:16.524Z,13.4
2018-09-08T06:16:26.412Z,13.5
2018-09-08T06:17:26.467Z,13.4
2018-09-08T06:18:26.878Z,13.4
2018-09-08T06:19:27.950Z,13.4
2018-09-08T06:20:27.963Z,13.5
2018-09-08T06:21:28.331Z,13.5
2018-09-08T06:22:29.251Z,13.5
2018-09-08T06:23:29.194Z,13.6
2018-09-08T06:24:32.172Z,13.6
2018-09-08T06:25:32.800Z,13.7
2018-09-08T06:26:35.909Z,13.7
2018-09-08T06:27:36.716Z,13.8
2018-09-08T06:28:37.321Z,13.9
2018-09-08T06:29:40.014Z,14.1
2018-09-08T06:30:42.974Z,14.3
2018-09-08T06:31:43.025Z,14.5
2018-09-08T06:32:46.435Z,14.6
2018-09-08T06:33:46.546Z,14.8
2018-09-08T06:34:47.370Z,14.9
2018-09-08T06:35:47.276Z,15.2
2018-09-08T06:36:47.183Z,15.4
2018-09-08T06:37:51.696Z,15.5
2018-09-08T06:38:52.312Z,15.6
2018-09-08T06:40:01.356Z,15.7
2018-09-08T06:41:01.799Z,15.9
2018-09-08T06:42:01.933Z,16.2
2018-09-08T06:43:04.402Z,16.3
2018-09-08T06:44:04.337Z,16.4
2018-09-08T06:45:05.352Z,16.6
2018-09-08T06:46:07.087Z,16.5
2018-09-08T06:47:10.570Z,16.5
2018-09-08T06:48:10.477Z,16.6
2018-09-08T06:49:14.371Z,16.6
2018-09-08T06:50:15.033Z,16.8
2018-09-08T06:51:14.957Z,16.8
2018-09-08T06:52:15.103Z,16.9
2018-09-08T06:53:15.634Z,17.1
2018-09-08T06:54:15.577Z,17.1
2018-09-08T06:55:15.726Z,17.2
2018-09-08T06:56:15.654Z,17.4
2018-09-08T06:57:16.617Z,17.4
2018-09-08T06:58:16.753Z,17.5
2018-09-08T06:59:16.700Z,17.5
2018-09-08T07:00:31.318Z,17.5
2018-09-08T07:01:31.257Z,17.6
2018-09-08T07:02:31.181Z,17.5
2018-09-08T07:03:31.551Z,17.6
2018-09-08T07:04:32.330Z,17.8
2018-09-08T07:05:32.244Z,17.9
2018-09-08T07:06:37.160Z,18.2
2018-09-08T07:07:37.539Z,18.4
2018-09-08T07:08:37.456Z,18.4
2018-09-08T07:09:38.413Z,18.2
2018-09-08T07:10:39.000Z,18.3
2018-09-08T07:11:39.928Z,18.4
2018-09-08T07:12:39.830Z,18.5
2018-09-08T07:13:39.748Z,18.6
2018-09-08T07:14:40.667Z,18.6
2018-09-08T07:15:41.594Z,18.6
2018-09-08T07:16:42.741Z,18.4
2018-09-08T07:17:42.651Z,18.6
2018-09-08T07:18:42.567Z,18.7
2018-09-08T07:19:42.494Z,18.7
2018-09-08T07:20:43.771Z,18.7
2018-09-08T07:21:43.701Z,18.8
2018-09-08T07:22:43.621Z,19
2018-09-08T07:23:44.017Z,18.9
2018-09-08T07:24:44.299Z,18.9
2018-09-08T07:25:44.371Z,19
2018-09-08T07:26:44.284Z,19.1
2018-09-08T07:27:44.193Z,19.2
2018-09-08T07:28:44.140Z,19.1
2018-09-08T07:29:45.092Z,19.2
2018-09-08T07:30:48.271Z,19.4
2018-09-08T07:31:48.841Z,19.2
2018-09-08T07:32:48.773Z,19.2
2018-09-08T07:33:48.949Z,18.9
2018-09-08T07:34:48.896Z,18.9
2018-09-08T07:35:51.859Z,18.9
2018-09-08T07:36:51.804Z,19
2018-09-08T07:37:51.952Z,19
2018-09-08T07:38:51.891Z,19
2018-09-08T07:39:52.531Z,19.1
2018-09-08T07:40:56.548Z,19.2
2018-09-08T07:41:56.480Z,19.2
2018-09-08T07:42:56.621Z,19.3
2018-09-08T07:43:56.632Z,19.3
2018-09-08T07:44:56.553Z,19.2
2018-09-08T07:45:59.648Z,19.2
2018-09-08T07:46:59.873Z,19.3
2018-09-08T07:47:59.778Z,19.4
2018-09-08T07:48:59.681Z,19.4
2018-09-08T07:49:59.831Z,19.2
2018-09-08T07:51:00.191Z,19
2018-09-08T07:52:00.106Z,18.7
2018-09-08T07:53:00.684Z,18.6
2018-09-08T07:54:00.781Z,18.7
2018-09-08T07:55:03.760Z,18.8
2018-09-08T07:56:03.668Z,18.6
2018-09-08T07:57:06.271Z,18.6
2018-09-08T07:58:07.188Z,18.4
2018-09-08T07:59:07.180Z,18.3
2018-09-08T08:00:10.273Z,18.5
2018-09-08T08:01:13.425Z,18.5
2018-09-08T08:02:14.584Z,18.6
2018-09-08T08:03:14.494Z,18.7
2018-09-08T08:04:14.427Z,18.7
2018-09-08T08:05:14.591Z,18.8
2018-09-08T08:06:14.523Z,19
2018-09-08T08:07:15.451Z,19.1
2018-09-08T08:08:15.585Z,19.2
2018-09-08T08:09:15.488Z,19.1
2018-09-08T08:10:15.656Z,19
2018-09-08T08:11:16.244Z,19
2018-09-08T08:12:16.159Z,19.1
2018-09-08T08:13:24.785Z,18.9
2018-09-08T08:14:24.820Z,18.3
2018-09-08T08:15:25.078Z,18.4
2018-09-08T08:16:24.983Z,18.7
2018-09-08T08:17:25.112Z,18.8
2018-09-08T08:18:25.084Z,18.9
2018-09-08T08:19:27.953Z,19
2018-09-08T08:20:30.803Z,18.8
2018-09-08T08:21:31.173Z,18.7
2018-09-08T08:22:31.098Z,18.9
2018-09-08T08:23:31.032Z,18.8
2018-09-08T08:24:31.223Z,18.7
2018-09-08T08:25:31.169Z,18.5
2018-09-08T08:26:31.317Z,18.5
2018-09-08T08:27:31.232Z,18.6
2018-09-08T08:28:31.141Z,18.7
2018-09-08T08:29:33.665Z,18.6
2018-09-08T08:30:33.870Z,18.7
2018-09-08T08:31:35.467Z,18.7
2018-09-08T08:32:35.380Z,18.6
2018-09-08T08:33:35.303Z,18.6
2018-09-08T08:34:38.150Z,18.7
2018-09-08T08:35:39.106Z,18.8
2018-09-08T08:36:39.023Z,18.7
2018-09-08T08:37:39.175Z,18.8
2018-09-08T08:38:39.081Z,18.8
2018-09-08T08:39:47.717Z,18.8
2018-09-08T08:40:50.508Z,18.6
2018-09-08T08:41:51.096Z,18.3
2018-09-08T08:42:51.286Z,18.2
2018-09-08T08:43:51.200Z,18.2
2018-09-08T08:44:56.929Z,18.1
2018-09-08T08:45:56.865Z,18.1
2018-09-08T08:46:57.797Z,18.2
2018-09-08T08:48:00.292Z,18
2018-09-08T08:49:00.439Z,17.8
2018-09-08T08:50:00.348Z,17.9
2018-09-08T08:51:00.299Z,17.7
2018-09-08T08:52:00.899Z,17.8
2018-09-08T08:53:00.816Z,17.8
2018-09-08T08:54:00.729Z,18
2018-09-08T08:55:00.665Z,18.2
2018-09-08T08:56:00.584Z,18.3
2018-09-08T08:57:03.276Z,18.3
2018-09-08T08:58:03.194Z,18.4
2018-09-08T08:59:03.110Z,18.2
2018-09-08T09:00:03.033Z,18.1
2018-09-08T09:01:02.937Z,18.1
2018-09-08T09:02:03.989Z,18.1
2018-09-08T09:03:04.160Z,18.1
2018-09-08T09:04:04.093Z,18.3
2018-09-08T09:05:04.004Z,18.3
2018-09-08T09:06:03.914Z,18.2
2018-09-08T09:07:05.387Z,18.3
2018-09-08T09:08:06.308Z,18.5
2018-09-08T09:09:08.868Z,18.5
2018-09-08T09:10:11.688Z,18.6
2018-09-08T09:11:12.590Z,18.6
2018-09-08T09:12:15.733Z,18.6
2018-09-08T09:13:18.657Z,18.6
2018-09-08T09:14:21.837Z,18.6
2018-09-08T09:15:23.825Z,18.6
2018-09-08T09:16:25.531Z,18.4
2018-09-08T09:17:25.471Z,18.4
2018-09-08T09:18:25.393Z,18.5
2018-09-08T09:19:25.521Z,18.6
2018-09-08T09:20:25.650Z,18.8
2018-09-08T09:21:25.584Z,18.9
2018-09-08T09:22:29.164Z,18.9
2018-09-08T09:23:29.072Z,19.1
2018-09-08T09:24:30.278Z,19.2
2018-09-08T09:25:31.712Z,19.2
2018-09-08T09:26:31.651Z,19.3
2018-09-08T09:27:31.580Z,19.3
2018-09-08T09:28:32.505Z,19.5
2018-09-08T09:29:32.455Z,19.4
2018-09-08T09:30:32.364Z,19.3
2018-09-08T09:31:35.056Z,18.9
2018-09-08T09:32:35.450Z,18.8
2018-09-08T09:33:35.357Z,19
2018-09-08T09:34:38.032Z,19.2
2018-09-08T09:35:37.944Z,19.3
2018-09-08T09:36:40.823Z,19.4
2018-09-08T09:37:40.765Z,19.4
2018-09-08T09:38:41.671Z,19.5
2018-09-08T09:39:44.158Z,19.4
2018-09-08T09:40:44.351Z,19.3
2018-09-08T09:41:45.270Z,19.3
2018-09-08T09:42:49.410Z,19.3
2018-09-08T09:43:49.338Z,19.4
2018-09-08T09:44:49.291Z,19.6
